sensor_id;sensor_type;location;lat;lon;timestamp;P1;durP1;ratioP1;P2;durP2;ratioP2
79076;SDS011;68477;42.698;23.342;2024-02-26T00:00:17;37.33;;;19.98;;
79076;SDS011;68477;42.698;23.342;2024-02-26T00:02:44;37.92;;;22.20;;
79076;SDS011;68477;42.698;23.342;2024-02-26T00:05:09;40.38;;;21.20;;
79076;SDS011;68477;42.698;23.342;2024-02-26T00:07:35;34.25;;;20.73;;
79076;SDS011;68477;42.698;23.342;2024-02-26T00:10:00;40.45;;;22.27;;
79076;SDS011;68477;42.698;23.342;2024-02-26T00:12:26;41.05;;;24.15;;
79076;SDS011;68477;42.698;23.342;2024-02-26T00:14:51;46.25;;;24.45;;
79076;SDS011;68477;42.698;23.342;2024-02-26T00:17:18;41.28;;;23.70;;
79076;SDS011;68477;42.698;23.342;2024-02-26T00:19:44;44.40;;;23.15;;
79076;SDS011;68477;42.698;23.342;2024-02-26T00:22:09;43.13;;;22.17;;
79076;SDS011;68477;42.698;23.342;2024-02-26T00:24:35;48.40;;;25.02;;
79076;SDS011;68477;42.698;23.342;2024-02-26T00:27:00;45.58;;;24.58;;
79076;SDS011;68477;42.698;23.342;2024-02-26T00:29:27;39.33;;;22.42;;
79076;SDS011;68477;42.698;23.342;2024-02-26T00:31:52;47.65;;;25.02;;
79076;SDS011;68477;42.698;23.342;2024-02-26T00:34:18;37.47;;;21.65;;
79076;SDS011;68477;42.698;23.342;2024-02-26T00:36:44;54.78;;;26.45;;
79076;SDS011;68477;42.698;23.342;2024-02-26T00:39:10;47.60;;;29.02;;
79076;SDS011;68477;42.698;23.342;2024-02-26T00:41:40;53.63;;;28.55;;
79076;SDS011;68477;42.698;23.342;2024-02-26T00:44:07;45.95;;;27.15;;
79076;SDS011;68477;42.698;23.342;2024-02-26T00:46:32;49.08;;;27.67;;
79076;SDS011;68477;42.698;23.342;2024-02-26T00:48:58;50.65;;;25.38;;
79076;SDS011;68477;42.698;23.342;2024-02-26T00:51:23;46.70;;;25.00;;
79076;SDS011;68477;42.698;23.342;2024-02-26T00:53:49;46.95;;;25.55;;
79076;SDS011;68477;42.698;23.342;2024-02-26T00:56:14;43.15;;;24.60;;
79076;SDS011;68477;42.698;23.342;2024-02-26T00:58:40;44.83;;;23.40;;
79076;SDS011;68477;42.698;23.342;2024-02-26T01:01:05;45.88;;;24.88;;
79076;SDS011;68477;42.698;23.342;2024-02-26T01:03:31;40.03;;;23.20;;
79076;SDS011;68477;42.698;23.342;2024-02-26T01:05:56;36.55;;;21.70;;
79076;SDS011;68477;42.698;23.342;2024-02-26T01:08:22;39.38;;;22.60;;
79076;SDS011;68477;42.698;23.342;2024-02-26T01:10:47;42.17;;;22.88;;
79076;SDS011;68477;42.698;23.342;2024-02-26T01:13:13;37.78;;;21.92;;
79076;SDS011;68477;42.698;23.342;2024-02-26T01:15:39;37.88;;;22.40;;
79076;SDS011;68477;42.698;23.342;2024-02-26T01:18:04;43.00;;;24.23;;
79076;SDS011;68477;42.698;23.342;2024-02-26T01:20:30;45.25;;;24.70;;
79076;SDS011;68477;42.698;23.342;2024-02-26T01:22:55;44.70;;;23.73;;
79076;SDS011;68477;42.698;23.342;2024-02-26T01:25:21;41.15;;;23.95;;
79076;SDS011;68477;42.698;23.342;2024-02-26T01:27:47;43.55;;;25.23;;
79076;SDS011;68477;42.698;23.342;2024-02-26T01:30:12;42.53;;;23.88;;
79076;SDS011;68477;42.698;23.342;2024-02-26T01:32:41;43.70;;;27.25;;
79076;SDS011;68477;42.698;23.342;2024-02-26T01:35:07;43.22;;;23.90;;
79076;SDS011;68477;42.698;23.342;2024-02-26T01:37:35;42.65;;;23.10;;
79076;SDS011;68477;42.698;23.342;2024-02-26T01:40:01;41.17;;;25.00;;
79076;SDS011;68477;42.698;23.342;2024-02-26T01:42:29;34.33;;;21.27;;
79076;SDS011;68477;42.698;23.342;2024-02-26T01:44:56;42.35;;;22.80;;
79076;SDS011;68477;42.698;23.342;2024-02-26T01:47:21;38.63;;;22.63;;
79076;SDS011;68477;42.698;23.342;2024-02-26T01:49:48;34.15;;;20.70;;
79076;SDS011;68477;42.698;23.342;2024-02-26T01:52:14;40.35;;;21.40;;
79076;SDS011;68477;42.698;23.342;2024-02-26T01:54:40;42.35;;;22.25;;
79076;SDS011;68477;42.698;23.342;2024-02-26T01:57:10;38.10;;;22.13;;
79076;SDS011;68477;42.698;23.342;2024-02-26T01:59:37;36.33;;;22.38;;
79076;SDS011;68477;42.698;23.342;2024-02-26T02:02:06;33.65;;;20.15;;
79076;SDS011;68477;42.698;23.342;2024-02-26T02:04:34;42.92;;;22.85;;
79076;SDS011;68477;42.698;23.342;2024-02-26T02:07:01;40.53;;;22.65;;
79076;SDS011;68477;42.698;23.342;2024-02-26T02:09:27;41.28;;;22.48;;
79076;SDS011;68477;42.698;23.342;2024-02-26T02:11:53;41.63;;;21.45;;
79076;SDS011;68477;42.698;23.342;2024-02-26T02:14:19;38.65;;;20.83;;
79076;SDS011;68477;42.698;23.342;2024-02-26T02:16:44;39.58;;;21.05;;
79076;SDS011;68477;42.698;23.342;2024-02-26T02:19:10;38.03;;;21.35;;
79076;SDS011;68477;42.698;23.342;2024-02-26T02:21:36;32.60;;;19.88;;
79076;SDS011;68477;42.698;23.342;2024-02-26T02:24:01;36.78;;;21.60;;
79076;SDS011;68477;42.698;23.342;2024-02-26T02:26:30;37.65;;;21.02;;
79076;SDS011;68477;42.698;23.342;2024-02-26T02:28:55;38.00;;;21.73;;
79076;SDS011;68477;42.698;23.342;2024-02-26T02:31:21;37.00;;;19.27;;
79076;SDS011;68477;42.698;23.342;2024-02-26T02:33:47;30.48;;;18.38;;
79076;SDS011;68477;42.698;23.342;2024-02-26T02:36:13;31.50;;;16.70;;
79076;SDS011;68477;42.698;23.342;2024-02-26T02:38:41;36.28;;;20.73;;
79076;SDS011;68477;42.698;23.342;2024-02-26T02:41:15;32.25;;;19.48;;
79076;SDS011;68477;42.698;23.342;2024-02-26T02:43:40;38.67;;;20.52;;
79076;SDS011;68477;42.698;23.342;2024-02-26T02:46:06;34.65;;;21.73;;
79076;SDS011;68477;42.698;23.342;2024-02-26T02:48:32;40.03;;;20.05;;
79076;SDS011;68477;42.698;23.342;2024-02-26T02:50:57;37.20;;;21.92;;
79076;SDS011;68477;42.698;23.342;2024-02-26T02:53:23;39.17;;;20.48;;
79076;SDS011;68477;42.698;23.342;2024-02-26T02:55:48;38.92;;;21.25;;
79076;SDS011;68477;42.698;23.342;2024-02-26T02:58:14;37.60;;;23.85;;
79076;SDS011;68477;42.698;23.342;2024-02-26T03:00:40;38.67;;;22.38;;
79076;SDS011;68477;42.698;23.342;2024-02-26T03:03:05;40.85;;;23.60;;
79076;SDS011;68477;42.698;23.342;2024-02-26T03:05:31;38.05;;;20.08;;
79076;SDS011;68477;42.698;23.342;2024-02-26T03:07:56;37.00;;;20.73;;
79076;SDS011;68477;42.698;23.342;2024-02-26T03:10:22;33.63;;;22.08;;
79076;SDS011;68477;42.698;23.342;2024-02-26T03:12:49;36.80;;;22.55;;
79076;SDS011;68477;42.698;23.342;2024-02-26T03:15:15;39.55;;;22.35;;
79076;SDS011;68477;42.698;23.342;2024-02-26T03:17:41;39.67;;;23.35;;
79076;SDS011;68477;42.698;23.342;2024-02-26T03:20:06;38.70;;;22.35;;
79076;SDS011;68477;42.698;23.342;2024-02-26T03:22:34;41.63;;;24.27;;
79076;SDS011;68477;42.698;23.342;2024-02-26T03:25:00;40.53;;;22.65;;
79076;SDS011;68477;42.698;23.342;2024-02-26T03:27:25;38.13;;;22.15;;
79076;SDS011;68477;42.698;23.342;2024-02-26T03:29:51;37.92;;;21.95;;
79076;SDS011;68477;42.698;23.342;2024-02-26T03:32:17;34.88;;;21.05;;
79076;SDS011;68477;42.698;23.342;2024-02-26T03:34:43;40.40;;;21.70;;
79076;SDS011;68477;42.698;23.342;2024-02-26T03:37:09;34.60;;;20.35;;
79076;SDS011;68477;42.698;23.342;2024-02-26T03:39:36;34.75;;;20.20;;
79076;SDS011;68477;42.698;23.342;2024-02-26T03:42:02;36.08;;;20.80;;
79076;SDS011;68477;42.698;23.342;2024-02-26T03:44:28;40.55;;;22.23;;
79076;SDS011;68477;42.698;23.342;2024-02-26T03:46:54;39.58;;;22.48;;
79076;SDS011;68477;42.698;23.342;2024-02-26T03:49:20;32.17;;;19.83;;
79076;SDS011;68477;42.698;23.342;2024-02-26T03:51:46;37.10;;;21.15;;
79076;SDS011;68477;42.698;23.342;2024-02-26T03:54:12;37.83;;;20.92;;
79076;SDS011;68477;42.698;23.342;2024-02-26T03:56:39;36.20;;;19.00;;
79076;SDS011;68477;42.698;23.342;2024-02-26T03:59:04;38.65;;;19.85;;
79076;SDS011;68477;42.698;23.342;2024-02-26T04:01:30;31.70;;;19.70;;
79076;SDS011;68477;42.698;23.342;2024-02-26T04:03:55;37.75;;;20.23;;
79076;SDS011;68477;42.698;23.342;2024-02-26T04:06:21;34.58;;;21.33;;
79076;SDS011;68477;42.698;23.342;2024-02-26T04:08:47;33.67;;;18.67;;
79076;SDS011;68477;42.698;23.342;2024-02-26T04:11:13;31.88;;;19.58;;
79076;SDS011;68477;42.698;23.342;2024-02-26T04:13:44;34.63;;;19.58;;
79076;SDS011;68477;42.698;23.342;2024-02-26T04:16:16;30.48;;;18.95;;
79076;SDS011;68477;42.698;23.342;2024-02-26T04:18:41;34.63;;;20.60;;
79076;SDS011;68477;42.698;23.342;2024-02-26T04:21:07;36.42;;;20.15;;
79076;SDS011;68477;42.698;23.342;2024-02-26T04:23:33;32.50;;;19.55;;
79076;SDS011;68477;42.698;23.342;2024-02-26T04:25:58;38.08;;;23.13;;
79076;SDS011;68477;42.698;23.342;2024-02-26T04:28:24;41.17;;;23.48;;
79076;SDS011;68477;42.698;23.342;2024-02-26T04:30:56;38.63;;;21.75;;
79076;SDS011;68477;42.698;23.342;2024-02-26T04:33:21;40.05;;;22.10;;
79076;SDS011;68477;42.698;23.342;2024-02-26T04:35:47;39.42;;;22.90;;
79076;SDS011;68477;42.698;23.342;2024-02-26T04:38:12;44.55;;;23.60;;
79076;SDS011;68477;42.698;23.342;2024-02-26T04:40:39;44.97;;;23.73;;
79076;SDS011;68477;42.698;23.342;2024-02-26T04:43:05;41.45;;;22.48;;
79076;SDS011;68477;42.698;23.342;2024-02-26T04:45:35;39.58;;;22.50;;
79076;SDS011;68477;42.698;23.342;2024-02-26T04:48:01;41.10;;;21.63;;
79076;SDS011;68477;42.698;23.342;2024-02-26T04:50:27;42.45;;;22.05;;
79076;SDS011;68477;42.698;23.342;2024-02-26T04:52:52;45.53;;;22.73;;
79076;SDS011;68477;42.698;23.342;2024-02-26T04:55:18;34.03;;;21.13;;
79076;SDS011;68477;42.698;23.342;2024-02-26T04:57:43;34.05;;;20.00;;
79076;SDS011;68477;42.698;23.342;2024-02-26T05:00:09;40.55;;;22.45;;
79076;SDS011;68477;42.698;23.342;2024-02-26T05:02:35;35.70;;;20.88;;
79076;SDS011;68477;42.698;23.342;2024-02-26T05:05:04;36.42;;;21.50;;
79076;SDS011;68477;42.698;23.342;2024-02-26T05:07:30;37.92;;;21.73;;
79076;SDS011;68477;42.698;23.342;2024-02-26T05:09:56;35.90;;;21.30;;
79076;SDS011;68477;42.698;23.342;2024-02-26T05:12:21;41.20;;;22.40;;
79076;SDS011;68477;42.698;23.342;2024-02-26T05:14:47;41.17;;;20.95;;
79076;SDS011;68477;42.698;23.342;2024-02-26T05:17:13;44.55;;;22.17;;
79076;SDS011;68477;42.698;23.342;2024-02-26T05:19:38;35.33;;;21.20;;
79076;SDS011;68477;42.698;23.342;2024-02-26T05:22:03;37.65;;;20.58;;
79076;SDS011;68477;42.698;23.342;2024-02-26T05:24:29;40.08;;;20.92;;
79076;SDS011;68477;42.698;23.342;2024-02-26T05:26:55;35.20;;;20.58;;
79076;SDS011;68477;42.698;23.342;2024-02-26T05:29:20;37.42;;;19.33;;
79076;SDS011;68477;42.698;23.342;2024-02-26T05:31:46;39.08;;;22.05;;
79076;SDS011;68477;42.698;23.342;2024-02-26T05:34:11;31.98;;;18.90;;
79076;SDS011;68477;42.698;23.342;2024-02-26T05:36:38;30.55;;;19.27;;
79076;SDS011;68477;42.698;23.342;2024-02-26T05:39:04;34.95;;;19.48;;
79076;SDS011;68477;42.698;23.342;2024-02-26T05:41:30;33.08;;;20.52;;
79076;SDS011;68477;42.698;23.342;2024-02-26T05:43:55;35.40;;;20.15;;
79076;SDS011;68477;42.698;23.342;2024-02-26T05:46:21;36.95;;;20.05;;
79076;SDS011;68477;42.698;23.342;2024-02-26T05:48:47;38.95;;;20.42;;
79076;SDS011;68477;42.698;23.342;2024-02-26T05:51:14;39.03;;;21.58;;
79076;SDS011;68477;42.698;23.342;2024-02-26T05:53:43;38.67;;;20.80;;
79076;SDS011;68477;42.698;23.342;2024-02-26T05:56:09;38.17;;;20.13;;
79076;SDS011;68477;42.698;23.342;2024-02-26T05:58:34;35.58;;;18.70;;
79076;SDS011;68477;42.698;23.342;2024-02-26T06:01:00;37.63;;;18.45;;
79076;SDS011;68477;42.698;23.342;2024-02-26T06:03:26;33.13;;;18.38;;
79076;SDS011;68477;42.698;23.342;2024-02-26T06:05:52;36.03;;;20.40;;
79076;SDS011;68477;42.698;23.342;2024-02-26T06:08:17;40.83;;;19.70;;
79076;SDS011;68477;42.698;23.342;2024-02-26T06:10:43;34.65;;;19.58;;
79076;SDS011;68477;42.698;23.342;2024-02-26T06:13:09;40.20;;;20.38;;
79076;SDS011;68477;42.698;23.342;2024-02-26T06:15:34;35.67;;;19.77;;
79076;SDS011;68477;42.698;23.342;2024-02-26T06:18:00;33.97;;;19.85;;
79076;SDS011;68477;42.698;23.342;2024-02-26T06:20:25;33.13;;;19.15;;
79076;SDS011;68477;42.698;23.342;2024-02-26T06:22:51;35.75;;;19.92;;
79076;SDS011;68477;42.698;23.342;2024-02-26T06:25:16;35.90;;;19.33;;
79076;SDS011;68477;42.698;23.342;2024-02-26T06:27:42;38.90;;;20.00;;
79076;SDS011;68477;42.698;23.342;2024-02-26T06:30:08;40.92;;;21.58;;
79076;SDS011;68477;42.698;23.342;2024-02-26T06:32:36;36.15;;;23.13;;
79076;SDS011;68477;42.698;23.342;2024-02-26T06:35:04;51.33;;;23.77;;
79076;SDS011;68477;42.698;23.342;2024-02-26T06:37:35;45.22;;;23.38;;
79076;SDS011;68477;42.698;23.342;2024-02-26T06:40:01;44.10;;;20.90;;
79076;SDS011;68477;42.698;23.342;2024-02-26T06:42:31;45.00;;;24.00;;
79076;SDS011;68477;42.698;23.342;2024-02-26T06:45:00;37.15;;;22.73;;
79076;SDS011;68477;42.698;23.342;2024-02-26T06:47:25;47.83;;;24.23;;
79076;SDS011;68477;42.698;23.342;2024-02-26T06:49:51;41.47;;;22.20;;
79076;SDS011;68477;42.698;23.342;2024-02-26T06:52:17;37.95;;;20.52;;
79076;SDS011;68477;42.698;23.342;2024-02-26T06:54:42;42.05;;;22.13;;
79076;SDS011;68477;42.698;23.342;2024-02-26T06:57:08;36.35;;;22.25;;
79076;SDS011;68477;42.698;23.342;2024-02-26T06:59:33;43.83;;;22.23;;
79076;SDS011;68477;42.698;23.342;2024-02-26T07:01:59;39.85;;;22.60;;
79076;SDS011;68477;42.698;23.342;2024-02-26T07:04:24;46.65;;;26.65;;
79076;SDS011;68477;42.698;23.342;2024-02-26T07:06:50;50.03;;;26.50;;
79076;SDS011;68477;42.698;23.342;2024-02-26T07:09:15;48.78;;;24.35;;
79076;SDS011;68477;42.698;23.342;2024-02-26T07:11:41;42.90;;;25.60;;
79076;SDS011;68477;42.698;23.342;2024-02-26T07:14:10;39.60;;;24.50;;
79076;SDS011;68477;42.698;23.342;2024-02-26T07:16:37;40.08;;;23.52;;
79076;SDS011;68477;42.698;23.342;2024-02-26T07:19:02;44.80;;;21.48;;
79076;SDS011;68477;42.698;23.342;2024-02-26T07:21:28;44.97;;;23.42;;
79076;SDS011;68477;42.698;23.342;2024-02-26T07:23:54;51.78;;;27.52;;
79076;SDS011;68477;42.698;23.342;2024-02-26T07:26:19;46.08;;;26.67;;
79076;SDS011;68477;42.698;23.342;2024-02-26T07:28:45;50.78;;;27.90;;
79076;SDS011;68477;42.698;23.342;2024-02-26T07:31:11;53.95;;;25.55;;
79076;SDS011;68477;42.698;23.342;2024-02-26T07:33:37;49.15;;;25.85;;
79076;SDS011;68477;42.698;23.342;2024-02-26T07:36:03;46.00;;;25.77;;
79076;SDS011;68477;42.698;23.342;2024-02-26T07:38:29;47.05;;;25.02;;
79076;SDS011;68477;42.698;23.342;2024-02-26T07:40:54;41.70;;;25.60;;
79076;SDS011;68477;42.698;23.342;2024-02-26T07:43:21;46.63;;;25.17;;
79076;SDS011;68477;42.698;23.342;2024-02-26T07:45:49;49.15;;;24.58;;
79076;SDS011;68477;42.698;23.342;2024-02-26T07:48:14;45.65;;;24.63;;
79076;SDS011;68477;42.698;23.342;2024-02-26T07:50:40;44.47;;;22.85;;
79076;SDS011;68477;42.698;23.342;2024-02-26T07:53:06;37.45;;;21.10;;
79076;SDS011;68477;42.698;23.342;2024-02-26T07:55:31;40.00;;;22.70;;
79076;SDS011;68477;42.698;23.342;2024-02-26T07:57:57;38.28;;;19.35;;
79076;SDS011;68477;42.698;23.342;2024-02-26T08:00:22;42.38;;;21.30;;
79076;SDS011;68477;42.698;23.342;2024-02-26T08:02:48;34.65;;;21.10;;
79076;SDS011;68477;42.698;23.342;2024-02-26T08:05:13;36.08;;;20.27;;
79076;SDS011;68477;42.698;23.342;2024-02-26T08:07:39;40.97;;;21.10;;
79076;SDS011;68477;42.698;23.342;2024-02-26T08:10:06;41.75;;;22.15;;
79076;SDS011;68477;42.698;23.342;2024-02-26T08:12:32;35.88;;;18.95;;
79076;SDS011;68477;42.698;23.342;2024-02-26T08:14:57;42.42;;;22.77;;
79076;SDS011;68477;42.698;23.342;2024-02-26T08:17:23;33.80;;;19.40;;
79076;SDS011;68477;42.698;23.342;2024-02-26T08:19:49;36.10;;;19.30;;
79076;SDS011;68477;42.698;23.342;2024-02-26T08:22:14;34.58;;;20.30;;
79076;SDS011;68477;42.698;23.342;2024-02-26T08:24:43;34.42;;;20.08;;
79076;SDS011;68477;42.698;23.342;2024-02-26T08:27:08;33.90;;;20.13;;
79076;SDS011;68477;42.698;23.342;2024-02-26T08:29:34;39.40;;;20.25;;
79076;SDS011;68477;42.698;23.342;2024-02-26T08:32:00;33.90;;;16.40;;
79076;SDS011;68477;42.698;23.342;2024-02-26T08:34:26;36.83;;;19.42;;
79076;SDS011;68477;42.698;23.342;2024-02-26T08:36:51;32.75;;;18.88;;
79076;SDS011;68477;42.698;23.342;2024-02-26T08:39:17;33.53;;;17.83;;
79076;SDS011;68477;42.698;23.342;2024-02-26T08:41:43;35.00;;;19.85;;
79076;SDS011;68477;42.698;23.342;2024-02-26T08:44:09;31.52;;;18.42;;
79076;SDS011;68477;42.698;23.342;2024-02-26T08:46:35;35.28;;;18.60;;
79076;SDS011;68477;42.698;23.342;2024-02-26T08:49:01;31.17;;;18.38;;
79076;SDS011;68477;42.698;23.342;2024-02-26T08:51:26;31.52;;;17.20;;
79076;SDS011;68477;42.698;23.342;2024-02-26T08:53:52;31.15;;;18.58;;
79076;SDS011;68477;42.698;23.342;2024-02-26T08:56:18;41.72;;;23.50;;
79076;SDS011;68477;42.698;23.342;2024-02-26T08:58:46;32.65;;;18.88;;
79076;SDS011;68477;42.698;23.342;2024-02-26T09:01:13;34.25;;;19.98;;
79076;SDS011;68477;42.698;23.342;2024-02-26T09:03:40;28.70;;;17.35;;
79076;SDS011;68477;42.698;23.342;2024-02-26T09:06:05;30.48;;;17.48;;
79076;SDS011;68477;42.698;23.342;2024-02-26T09:08:32;23.83;;;13.32;;
79076;SDS011;68477;42.698;23.342;2024-02-26T09:10:58;20.67;;;12.90;;
79076;SDS011;68477;42.698;23.342;2024-02-26T09:13:23;27.15;;;15.52;;
79076;SDS011;68477;42.698;23.342;2024-02-26T09:15:49;23.73;;;13.57;;
79076;SDS011;68477;42.698;23.342;2024-02-26T09:18:15;33.22;;;17.80;;
79076;SDS011;68477;42.698;23.342;2024-02-26T09:20:41;23.15;;;13.75;;
79076;SDS011;68477;42.698;23.342;2024-02-26T09:23:06;32.10;;;13.65;;
79076;SDS011;68477;42.698;23.342;2024-02-26T09:25:32;33.15;;;17.77;;
79076;SDS011;68477;42.698;23.342;2024-02-26T09:27:58;15.05;;;10.00;;
79076;SDS011;68477;42.698;23.342;2024-02-26T09:30:24;20.90;;;12.60;;
79076;SDS011;68477;42.698;23.342;2024-02-26T09:32:50;21.70;;;12.68;;
79076;SDS011;68477;42.698;23.342;2024-02-26T09:35:15;20.02;;;11.65;;
79076;SDS011;68477;42.698;23.342;2024-02-26T09:37:41;18.10;;;9.88;;
79076;SDS011;68477;42.698;23.342;2024-02-26T09:40:09;14.88;;;8.57;;
79076;SDS011;68477;42.698;23.342;2024-02-26T09:42:40;16.67;;;7.90;;
79076;SDS011;68477;42.698;23.342;2024-02-26T09:45:10;7.97;;;6.00;;
79076;SDS011;68477;42.698;23.342;2024-02-26T09:47:42;10.90;;;6.00;;
79076;SDS011;68477;42.698;23.342;2024-02-26T09:50:09;12.07;;;6.35;;
79076;SDS011;68477;42.698;23.342;2024-02-26T09:55:04;18.25;;;6.18;;
79076;SDS011;68477;42.698;23.342;2024-02-26T09:57:30;8.52;;;6.43;;
79076;SDS011;68477;42.698;23.342;2024-02-26T09:59:59;10.13;;;6.70;;
79076;SDS011;68477;42.698;23.342;2024-02-26T10:02:30;9.25;;;5.57;;
79076;SDS011;68477;42.698;23.342;2024-02-26T10:04:58;9.13;;;6.22;;
79076;SDS011;68477;42.698;23.342;2024-02-26T10:07:30;8.95;;;6.00;;
79076;SDS011;68477;42.698;23.342;2024-02-26T10:09:56;10.43;;;6.75;;
79076;SDS011;68477;42.698;23.342;2024-02-26T10:12:21;11.95;;;6.30;;
79076;SDS011;68477;42.698;23.342;2024-02-26T10:14:47;7.28;;;5.60;;
79076;SDS011;68477;42.698;23.342;2024-02-26T10:17:12;15.05;;;6.88;;
79076;SDS011;68477;42.698;23.342;2024-02-26T10:19:38;10.10;;;5.40;;
79076;SDS011;68477;42.698;23.342;2024-02-26T10:22:03;9.48;;;5.60;;
79076;SDS011;68477;42.698;23.342;2024-02-26T10:24:29;11.15;;;6.40;;
79076;SDS011;68477;42.698;23.342;2024-02-26T10:26:56;11.07;;;5.07;;
79076;SDS011;68477;42.698;23.342;2024-02-26T10:29:23;9.70;;;5.78;;
79076;SDS011;68477;42.698;23.342;2024-02-26T10:31:50;8.50;;;5.65;;
79076;SDS011;68477;42.698;23.342;2024-02-26T10:34:16;8.15;;;6.00;;
79076;SDS011;68477;42.698;23.342;2024-02-26T10:36:42;11.52;;;5.50;;
79076;SDS011;68477;42.698;23.342;2024-02-26T10:39:08;9.00;;;5.75;;
79076;SDS011;68477;42.698;23.342;2024-02-26T10:41:34;9.02;;;5.90;;
79076;SDS011;68477;42.698;23.342;2024-02-26T10:44:00;8.38;;;5.97;;
79076;SDS011;68477;42.698;23.342;2024-02-26T10:46:26;12.43;;;5.32;;
79076;SDS011;68477;42.698;23.342;2024-02-26T10:48:52;11.35;;;6.15;;
79076;SDS011;68477;42.698;23.342;2024-02-26T10:51:27;9.50;;;5.82;;
79076;SDS011;68477;42.698;23.342;2024-02-26T10:53:56;10.25;;;5.88;;
79076;SDS011;68477;42.698;23.342;2024-02-26T10:56:27;8.25;;;5.43;;
79076;SDS011;68477;42.698;23.342;2024-02-26T10:58:57;8.38;;;5.20;;
79076;SDS011;68477;42.698;23.342;2024-02-26T11:01:23;9.27;;;5.90;;
79076;SDS011;68477;42.698;23.342;2024-02-26T11:03:51;12.27;;;6.63;;
79076;SDS011;68477;42.698;23.342;2024-02-26T11:06:18;9.82;;;5.32;;
79076;SDS011;68477;42.698;23.342;2024-02-26T11:08:49;9.38;;;5.75;;
79076;SDS011;68477;42.698;23.342;2024-02-26T11:11:15;9.00;;;5.28;;
79076;SDS011;68477;42.698;23.342;2024-02-26T11:13:44;9.57;;;5.40;;
79076;SDS011;68477;42.698;23.342;2024-02-26T11:16:14;8.15;;;5.60;;
79076;SDS011;68477;42.698;23.342;2024-02-26T11:18:43;8.00;;;5.18;;
79076;SDS011;68477;42.698;23.342;2024-02-26T11:21:13;5.90;;;4.40;;
79076;SDS011;68477;42.698;23.342;2024-02-26T11:23:41;9.85;;;4.75;;
79076;SDS011;68477;42.698;23.342;2024-02-26T11:26:07;8.55;;;5.22;;
79076;SDS011;68477;42.698;23.342;2024-02-26T11:28:35;16.23;;;4.40;;
79076;SDS011;68477;42.698;23.342;2024-02-26T11:31:02;7.20;;;4.78;;
79076;SDS011;68477;42.698;23.342;2024-02-26T11:33:29;12.00;;;6.05;;
79076;SDS011;68477;42.698;23.342;2024-02-26T11:35:55;6.45;;;4.43;;
79076;SDS011;68477;42.698;23.342;2024-02-26T11:38:21;12.63;;;5.20;;
79076;SDS011;68477;42.698;23.342;2024-02-26T11:40:48;9.02;;;5.30;;
79076;SDS011;68477;42.698;23.342;2024-02-26T11:43:15;7.63;;;4.85;;
79076;SDS011;68477;42.698;23.342;2024-02-26T11:48:12;9.85;;;5.53;;
79076;SDS011;68477;42.698;23.342;2024-02-26T11:50:42;8.73;;;5.80;;
79076;SDS011;68477;42.698;23.342;2024-02-26T11:59:04;7.95;;;5.10;;
79076;SDS011;68477;42.698;23.342;2024-02-26T12:01:38;8.52;;;5.47;;
79076;SDS011;68477;42.698;23.342;2024-02-26T12:04:17;7.78;;;4.95;;
79076;SDS011;68477;42.698;23.342;2024-02-26T12:09:34;9.13;;;4.97;;
79076;SDS011;68477;42.698;23.342;2024-02-26T12:12:06;6.80;;;4.82;;
79076;SDS011;68477;42.698;23.342;2024-02-26T12:14:55;9.95;;;5.28;;
79076;SDS011;68477;42.698;23.342;2024-02-26T12:17:22;11.15;;;5.40;;
79076;SDS011;68477;42.698;23.342;2024-02-26T12:19:48;6.75;;;5.18;;
79076;SDS011;68477;42.698;23.342;2024-02-26T12:22:15;9.98;;;4.90;;
79076;SDS011;68477;42.698;23.342;2024-02-26T12:24:44;10.15;;;4.95;;
79076;SDS011;68477;42.698;23.342;2024-02-26T12:27:10;6.28;;;4.38;;
79076;SDS011;68477;42.698;23.342;2024-02-26T12:29:36;6.90;;;4.53;;
79076;SDS011;68477;42.698;23.342;2024-02-26T12:32:01;6.15;;;4.72;;
79076;SDS011;68477;42.698;23.342;2024-02-26T12:34:29;5.30;;;3.88;;
79076;SDS011;68477;42.698;23.342;2024-02-26T12:36:55;13.82;;;4.97;;
79076;SDS011;68477;42.698;23.342;2024-02-26T12:39:21;9.93;;;4.28;;
79076;SDS011;68477;42.698;23.342;2024-02-26T12:41:47;6.30;;;4.00;;
79076;SDS011;68477;42.698;23.342;2024-02-26T12:44:16;7.18;;;3.50;;
79076;SDS011;68477;42.698;23.342;2024-02-26T12:46:42;9.25;;;4.75;;
79076;SDS011;68477;42.698;23.342;2024-02-26T12:49:07;10.18;;;5.10;;
79076;SDS011;68477;42.698;23.342;2024-02-26T12:51:33;8.85;;;4.45;;
79076;SDS011;68477;42.698;23.342;2024-02-26T12:53:58;6.82;;;3.58;;
79076;SDS011;68477;42.698;23.342;2024-02-26T12:56:24;6.95;;;3.50;;
79076;SDS011;68477;42.698;23.342;2024-02-26T12:58:51;8.95;;;4.25;;
79076;SDS011;68477;42.698;23.342;2024-02-26T13:01:19;9.65;;;3.78;;
79076;SDS011;68477;42.698;23.342;2024-02-26T13:03:47;8.13;;;3.65;;
79076;SDS011;68477;42.698;23.342;2024-02-26T13:06:15;6.18;;;3.67;;
79076;SDS011;68477;42.698;23.342;2024-02-26T13:08:42;5.75;;;3.80;;
79076;SDS011;68477;42.698;23.342;2024-02-26T13:11:08;9.88;;;3.70;;
79076;SDS011;68477;42.698;23.342;2024-02-26T13:13:33;5.97;;;4.20;;
79076;SDS011;68477;42.698;23.342;2024-02-26T13:16:07;12.80;;;4.00;;
79076;SDS011;68477;42.698;23.342;2024-02-26T13:18:35;9.23;;;4.40;;
79076;SDS011;68477;42.698;23.342;2024-02-26T13:21:14;8.25;;;4.68;;
79076;SDS011;68477;42.698;23.342;2024-02-26T13:23:40;8.00;;;3.67;;
79076;SDS011;68477;42.698;23.342;2024-02-26T13:26:07;7.20;;;3.80;;
79076;SDS011;68477;42.698;23.342;2024-02-26T13:28:33;6.38;;;4.15;;
79076;SDS011;68477;42.698;23.342;2024-02-26T13:30:59;6.10;;;3.78;;
79076;SDS011;68477;42.698;23.342;2024-02-26T13:33:27;6.47;;;3.47;;
79076;SDS011;68477;42.698;23.342;2024-02-26T13:35:57;6.93;;;4.28;;
79076;SDS011;68477;42.698;23.342;2024-02-26T13:38:23;7.55;;;4.18;;
79076;SDS011;68477;42.698;23.342;2024-02-26T13:40:50;8.23;;;3.88;;
79076;SDS011;68477;42.698;23.342;2024-02-26T13:43:16;9.13;;;3.80;;
79076;SDS011;68477;42.698;23.342;2024-02-26T13:45:42;7.07;;;4.18;;
79076;SDS011;68477;42.698;23.342;2024-02-26T13:48:08;9.07;;;3.85;;
79076;SDS011;68477;42.698;23.342;2024-02-26T13:50:36;8.50;;;4.47;;
79076;SDS011;68477;42.698;23.342;2024-02-26T13:53:05;7.43;;;3.80;;
79076;SDS011;68477;42.698;23.342;2024-02-26T13:55:31;7.20;;;3.65;;
79076;SDS011;68477;42.698;23.342;2024-02-26T13:57:57;9.23;;;4.50;;
79076;SDS011;68477;42.698;23.342;2024-02-26T14:00:24;7.88;;;4.65;;
79076;SDS011;68477;42.698;23.342;2024-02-26T14:02:50;5.80;;;3.25;;
79076;SDS011;68477;42.698;23.342;2024-02-26T14:05:16;6.35;;;3.60;;
79076;SDS011;68477;42.698;23.342;2024-02-26T14:07:42;6.88;;;4.80;;
79076;SDS011;68477;42.698;23.342;2024-02-26T14:10:08;7.95;;;3.63;;
79076;SDS011;68477;42.698;23.342;2024-02-26T14:12:37;7.45;;;3.67;;
79076;SDS011;68477;42.698;23.342;2024-02-26T14:15:02;7.20;;;3.78;;
79076;SDS011;68477;42.698;23.342;2024-02-26T14:17:30;8.40;;;3.90;;
79076;SDS011;68477;42.698;23.342;2024-02-26T14:19:56;7.72;;;3.90;;
79076;SDS011;68477;42.698;23.342;2024-02-26T14:22:21;5.80;;;3.55;;
79076;SDS011;68477;42.698;23.342;2024-02-26T14:24:47;6.57;;;4.03;;